sensor_id;sensor_type;location;lat;lon;timestamp;temperature;humidity
53053;DHT22;38934;52.690;6.184;2023-05-07T00:02:10;14.10;99.90
53053;DHT22;38934;52.690;6.184;2023-05-07T00:04:36;14.10;99.90
53053;DHT22;38934;52.690;6.184;2023-05-07T00:07:03;14.10;99.90
53053;DHT22;38934;52.690;6.184;2023-05-07T00:09:29;14.10;99.90
53053;DHT22;38934;52.690;6.184;2023-05-07T00:11:55;14.10;99.90
53053;DHT22;38934;52.690;6.184;2023-05-07T00:14:22;14.10;99.90
53053;DHT22;38934;52.690;6.184;2023-05-07T00:16:48;14.10;99.90
53053;DHT22;38934;52.690;6.184;2023-05-07T00:19:14;14.10;99.90
53053;DHT22;38934;52.690;6.184;2023-05-07T00:21:39;14.10;99.90
53053;DHT22;38934;52.690;6.184;2023-05-07T00:24:05;14.10;99.90
53053;DHT22;38934;52.690;6.184;2023-05-07T00:26:31;14.10;99.90
53053;DHT22;38934;52.690;6.184;2023-05-07T00:28:57;14.10;99.90
53053;DHT22;38934;52.690;6.184;2023-05-07T00:31:24;14.10;99.90
53053;DHT22;38934;52.690;6.184;2023-05-07T00:33:50;14.10;99.90
53053;DHT22;38934;52.690;6.184;2023-05-07T00:36:16;14.50;99.90
53053;DHT22;38934;52.690;6.184;2023-05-07T00:38:41;14.10;99.90
53053;DHT22;38934;52.690;6.184;2023-05-07T00:41:08;14.10;99.90
53053;DHT22;38934;52.690;6.184;2023-05-07T00:43:34;14.00;99.90
53053;DHT22;38934;52.690;6.184;2023-05-07T00:45:59;14.00;99.90
53053;DHT22;38934;52.690;6.184;2023-05-07T00:48:26;14.60;99.90
53053;DHT22;38934;52.690;6.184;2023-05-07T00:50:52;14.00;99.90
53053;DHT22;38934;52.690;6.184;2023-05-07T00:53:17;14.00;99.90
53053;DHT22;38934;52.690;6.184;2023-05-07T00:55:43;14.00;99.90
53053;DHT22;38934;52.690;6.184;2023-05-07T00:58:09;13.90;99.90
53053;DHT22;38934;52.690;6.184;2023-05-07T01:00:35;13.90;99.90
53053;DHT22;38934;52.690;6.184;2023-05-07T01:03:01;14.00;99.90
53053;DHT22;38934;52.690;6.184;2023-05-07T01:05:27;14.10;99.90
53053;DHT22;38934;52.690;6.184;2023-05-07T01:07:54;13.90;99.90
53053;DHT22;38934;52.690;6.184;2023-05-07T01:10:20;13.90;99.90
53053;DHT22;38934;52.690;6.184;2023-05-07T01:12:46;13.90;99.90
53053;DHT22;38934;52.690;6.184;2023-05-07T01:15:13;13.90;99.90
53053;DHT22;38934;52.690;6.184;2023-05-07T01:17:40;13.90;99.90
53053;DHT22;38934;52.690;6.184;2023-05-07T01:20:07;13.90;99.90
53053;DHT22;38934;52.690;6.184;2023-05-07T01:22:33;13.80;99.90
53053;DHT22;38934;52.690;6.184;2023-05-07T01:25:00;13.80;99.90
53053;DHT22;38934;52.690;6.184;2023-05-07T01:27:27;13.80;99.90
53053;DHT22;38934;52.690;6.184;2023-05-07T01:29:53;13.80;99.90
53053;DHT22;38934;52.690;6.184;2023-05-07T01:32:27;14.00;99.90
53053;DHT22;38934;52.690;6.184;2023-05-07T01:34:54;13.80;99.90
53053;DHT22;38934;52.690;6.184;2023-05-07T01:37:21;13.70;99.90
53053;DHT22;38934;52.690;6.184;2023-05-07T01:39:47;13.80;99.90
53053;DHT22;38934;52.690;6.184;2023-05-07T01:42:13;13.80;99.90
53053;DHT22;38934;52.690;6.184;2023-05-07T01:44:39;13.70;99.90
53053;DHT22;38934;52.690;6.184;2023-05-07T01:47:06;13.80;99.90
53053;DHT22;38934;52.690;6.184;2023-05-07T01:49:31;13.70;99.90
53053;DHT22;38934;52.690;6.184;2023-05-07T01:51:58;14.00;99.90
53053;DHT22;38934;52.690;6.184;2023-05-07T01:54:27;13.60;99.90
53053;DHT22;38934;52.690;6.184;2023-05-07T01:56:59;13.60;99.90
53053;DHT22;38934;52.690;6.184;2023-05-07T01:59:25;13.60;99.90
53053;DHT22;38934;52.690;6.184;2023-05-07T02:01:51;13.50;99.90
53053;DHT22;38934;52.690;6.184;2023-05-07T02:04:17;13.50;99.90
53053;DHT22;38934;52.690;6.184;2023-05-07T02:06:43;13.50;99.90
53053;DHT22;38934;52.690;6.184;2023-05-07T02:09:09;13.50;99.90
53053;DHT22;38934;52.690;6.184;2023-05-07T02:11:34;13.50;99.90
53053;DHT22;38934;52.690;6.184;2023-05-07T02:14:00;13.40;99.90
53053;DHT22;38934;52.690;6.184;2023-05-07T02:16:26;13.50;99.90
53053;DHT22;38934;52.690;6.184;2023-05-07T02:18:52;13.40;99.90
53053;DHT22;38934;52.690;6.184;2023-05-07T02:21:18;13.30;99.90
53053;DHT22;38934;52.690;6.184;2023-05-07T02:23:43;13.30;99.90
53053;DHT22;38934;52.690;6.184;2023-05-07T02:26:09;13.30;99.90
53053;DHT22;38934;52.690;6.184;2023-05-07T02:28:35;13.20;99.90
53053;DHT22;38934;52.690;6.184;2023-05-07T02:31:03;13.20;99.90
53053;DHT22;38934;52.690;6.184;2023-05-07T02:33:29;13.10;99.90
53053;DHT22;38934;52.690;6.184;2023-05-07T02:35:55;13.10;99.90
53053;DHT22;38934;52.690;6.184;2023-05-07T02:38:21;13.30;99.90
53053;DHT22;38934;52.690;6.184;2023-05-07T02:40:46;13.10;99.90
53053;DHT22;38934;52.690;6.184;2023-05-07T02:43:12;13.10;99.90
53053;DHT22;38934;52.690;6.184;2023-05-07T02:45:38;13.00;99.90
53053;DHT22;38934;52.690;6.184;2023-05-07T02:48:05;13.00;99.90
53053;DHT22;38934;52.690;6.184;2023-05-07T02:50:31;13.00;99.90
53053;DHT22;38934;52.690;6.184;2023-05-07T02:52:58;13.00;99.90
53053;DHT22;38934;52.690;6.184;2023-05-07T02:55:25;12.90;99.90
53053;DHT22;38934;52.690;6.184;2023-05-07T02:57:50;13.00;99.90
53053;DHT22;38934;52.690;6.184;2023-05-07T03:00:18;12.90;99.90
53053;DHT22;38934;52.690;6.184;2023-05-07T03:02:46;12.80;99.90
53053;DHT22;38934;52.690;6.184;2023-05-07T03:05:13;12.80;99.90
53053;DHT22;38934;52.690;6.184;2023-05-07T03:07:45;13.00;99.90
53053;DHT22;38934;52.690;6.184;2023-05-07T03:10:11;12.80;99.90
53053;DHT22;38934;52.690;6.184;2023-05-07T03:12:37;12.70;99.90
53053;DHT22;38934;52.690;6.184;2023-05-07T03:15:03;12.60;99.90
53053;DHT22;38934;52.690;6.184;2023-05-07T03:17:30;12.60;99.90
53053;DHT22;38934;52.690;6.184;2023-05-07T03:19:59;12.60;99.90
53053;DHT22;38934;52.690;6.184;2023-05-07T03:22:25;12.60;99.90
53053;DHT22;38934;52.690;6.184;2023-05-07T03:24:51;12.60;99.90
53053;DHT22;38934;52.690;6.184;2023-05-07T03:27:16;12.50;99.90
53053;DHT22;38934;52.690;6.184;2023-05-07T03:29:43;12.50;99.90
53053;DHT22;38934;52.690;6.184;2023-05-07T03:32:10;12.40;99.90
53053;DHT22;38934;52.690;6.184;2023-05-07T03:34:35;12.40;99.90
53053;DHT22;38934;52.690;6.184;2023-05-07T03:37:01;12.30;99.90
53053;DHT22;38934;52.690;6.184;2023-05-07T03:39:33;12.30;99.90
53053;DHT22;38934;52.690;6.184;2023-05-07T03:41:58;12.30;99.90
53053;DHT22;38934;52.690;6.184;2023-05-07T03:44:24;12.30;99.90
53053;DHT22;38934;52.690;6.184;2023-05-07T03:46:50;12.20;99.90
53053;DHT22;38934;52.690;6.184;2023-05-07T03:49:15;12.20;99.90
53053;DHT22;38934;52.690;6.184;2023-05-07T03:51:42;12.20;99.90
53053;DHT22;38934;52.690;6.184;2023-05-07T03:54:10;12.20;99.90
53053;DHT22;38934;52.690;6.184;2023-05-07T03:56:36;12.20;99.90
53053;DHT22;38934;52.690;6.184;2023-05-07T03:59:03;12.20;99.90
53053;DHT22;38934;52.690;6.184;2023-05-07T04:01:29;12.10;99.90
53053;DHT22;38934;52.690;6.184;2023-05-07T04:03:55;12.10;99.90
53053;DHT22;38934;52.690;6.184;2023-05-07T04:06:22;12.10;99.90
53053;DHT22;38934;52.690;6.184;2023-05-07T04:08:54;12.50;99.90
53053;DHT22;38934;52.690;6.184;2023-05-07T04:11:36;12.00;99.90
53053;DHT22;38934;52.690;6.184;2023-05-07T04:14:07;12.00;99.90
53053;DHT22;38934;52.690;6.184;2023-05-07T04:16:34;12.00;99.90
53053;DHT22;38934;52.690;6.184;2023-05-07T04:19:00;12.00;99.90
53053;DHT22;38934;52.690;6.184;2023-05-07T04:21:35;12.90;99.90
53053;DHT22;38934;52.690;6.184;2023-05-07T04:24:05;12.00;99.90
53053;DHT22;38934;52.690;6.184;2023-05-07T04:26:31;11.90;99.90
53053;DHT22;38934;52.690;6.184;2023-05-07T04:28:57;12.00;99.90
53053;DHT22;38934;52.690;6.184;2023-05-07T04:31:24;11.90;99.90
53053;DHT22;38934;52.690;6.184;2023-05-07T04:33:51;11.90;99.90
53053;DHT22;38934;52.690;6.184;2023-05-07T04:36:18;12.70;99.90
53053;DHT22;38934;52.690;6.184;2023-05-07T04:38:44;11.90;99.90
53053;DHT22;38934;52.690;6.184;2023-05-07T04:41:14;11.90;99.90
53053;DHT22;38934;52.690;6.184;2023-05-07T04:43:42;12.10;99.90
53053;DHT22;38934;52.690;6.184;2023-05-07T04:46:08;11.90;99.90
53053;DHT22;38934;52.690;6.184;2023-05-07T04:48:34;11.90;99.90
53053;DHT22;38934;52.690;6.184;2023-05-07T04:51:00;11.90;99.90
53053;DHT22;38934;52.690;6.184;2023-05-07T04:53:27;11.90;99.90
53053;DHT22;38934;52.690;6.184;2023-05-07T04:56:03;12.70;99.90
53053;DHT22;38934;52.690;6.184;2023-05-07T04:58:28;11.90;99.90
53053;DHT22;38934;52.690;6.184;2023-05-07T05:00:58;12.00;99.90
53053;DHT22;38934;52.690;6.184;2023-05-07T05:03:24;11.90;99.90
53053;DHT22;38934;52.690;6.184;2023-05-07T05:05:52;12.00;99.90
53053;DHT22;38934;52.690;6.184;2023-05-07T05:08:19;11.90;99.90
53053;DHT22;38934;52.690;6.184;2023-05-07T05:10:47;11.90;99.90
53053;DHT22;38934;52.690;6.184;2023-05-07T05:13:21;11.90;99.90
53053;DHT22;38934;52.690;6.184;2023-05-07T05:15:46;11.90;99.90
53053;DHT22;38934;52.690;6.184;2023-05-07T05:18:14;11.90;99.90
53053;DHT22;38934;52.690;6.184;2023-05-07T05:20:40;11.90;99.90
53053;DHT22;38934;52.690;6.184;2023-05-07T05:23:07;12.00;99.90
53053;DHT22;38934;52.690;6.184;2023-05-07T05:25:33;12.00;99.90
53053;DHT22;38934;52.690;6.184;2023-05-07T05:27:59;12.00;99.90
53053;DHT22;38934;52.690;6.184;2023-05-07T05:30:28;12.10;99.90
53053;DHT22;38934;52.690;6.184;2023-05-07T05:32:53;12.10;99.90
53053;DHT22;38934;52.690;6.184;2023-05-07T05:35:25;12.20;99.90
53053;DHT22;38934;52.690;6.184;2023-05-07T05:37:51;12.20;99.90
53053;DHT22;38934;52.690;6.184;2023-05-07T05:40:16;12.20;99.90
53053;DHT22;38934;52.690;6.184;2023-05-07T05:42:43;12.20;99.90
53053;DHT22;38934;52.690;6.184;2023-05-07T05:45:10;12.20;99.90
53053;DHT22;38934;52.690;6.184;2023-05-07T05:47:37;12.20;99.90
53053;DHT22;38934;52.690;6.184;2023-05-07T05:50:03;12.20;99.90
53053;DHT22;38934;52.690;6.184;2023-05-07T05:52:31;12.30;99.90
53053;DHT22;38934;52.690;6.184;2023-05-07T05:54:57;12.30;99.90
53053;DHT22;38934;52.690;6.184;2023-05-07T05:57:22;12.40;99.90
53053;DHT22;38934;52.690;6.184;2023-05-07T05:59:48;12.40;99.90
53053;DHT22;38934;52.690;6.184;2023-05-07T06:02:15;12.40;99.90
53053;DHT22;38934;52.690;6.184;2023-05-07T06:04:41;12.90;99.90
53053;DHT22;38934;52.690;6.184;2023-05-07T06:07:16;12.30;99.90
53053;DHT22;38934;52.690;6.184;2023-05-07T06:09:43;12.30;99.90
53053;DHT22;38934;52.690;6.184;2023-05-07T06:12:14;12.30;99.90
53053;DHT22;38934;52.690;6.184;2023-05-07T06:14:43;12.50;99.90
53053;DHT22;38934;52.690;6.184;2023-05-07T06:17:12;12.70;99.90
53053;DHT22;38934;52.690;6.184;2023-05-07T06:19:37;12.60;99.90
53053;DHT22;38934;52.690;6.184;2023-05-07T06:22:03;12.30;99.90
53053;DHT22;38934;52.690;6.184;2023-05-07T06:24:30;12.30;99.90
53053;DHT22;38934;52.690;6.184;2023-05-07T06:26:55;12.30;99.90
53053;DHT22;38934;52.690;6.184;2023-05-07T06:29:47;12.40;99.90
53053;DHT22;38934;52.690;6.184;2023-05-07T06:32:18;12.40;99.90
53053;DHT22;38934;52.690;6.184;2023-05-07T06:34:46;12.60;99.90
53053;DHT22;38934;52.690;6.184;2023-05-07T06:37:12;12.60;99.90
53053;DHT22;38934;52.690;6.184;2023-05-07T06:39:38;12.70;99.90
53053;DHT22;38934;52.690;6.184;2023-05-07T06:42:03;13.10;99.90
53053;DHT22;38934;52.690;6.184;2023-05-07T06:44:30;12.90;99.90
53053;DHT22;38934;52.690;6.184;2023-05-07T06:46:59;13.10;99.90
53053;DHT22;38934;52.690;6.184;2023-05-07T06:49:25;13.60;99.90
53053;DHT22;38934;52.690;6.184;2023-05-07T06:51:51;13.40;99.90
53053;DHT22;38934;52.690;6.184;2023-05-07T06:54:18;13.50;99.90
53053;DHT22;38934;52.690;6.184;2023-05-07T06:56:44;13.70;99.90
53053;DHT22;38934;52.690;6.184;2023-05-07T06:59:10;14.00;99.90
53053;DHT22;38934;52.690;6.184;2023-05-07T07:01:39;14.10;99.90
53053;DHT22;38934;52.690;6.184;2023-05-07T07:04:05;14.20;99.90
53053;DHT22;38934;52.690;6.184;2023-05-07T07:06:31;14.40;99.90
53053;DHT22;38934;52.690;6.184;2023-05-07T07:08:58;14.40;99.90
53053;DHT22;38934;52.690;6.184;2023-05-07T07:11:35;14.40;99.90
53053;DHT22;38934;52.690;6.184;2023-05-07T07:14:00;14.50;99.90
53053;DHT22;38934;52.690;6.184;2023-05-07T07:16:31;14.50;99.90
53053;DHT22;38934;52.690;6.184;2023-05-07T07:18:59;14.60;99.90
53053;DHT22;38934;52.690;6.184;2023-05-07T07:21:25;14.70;99.90
53053;DHT22;38934;52.690;6.184;2023-05-07T07:23:52;14.90;99.90
53053;DHT22;38934;52.690;6.184;2023-05-07T07:26:18;14.90;99.90
53053;DHT22;38934;52.690;6.184;2023-05-07T07:28:46;15.00;99.90
53053;DHT22;38934;52.690;6.184;2023-05-07T07:31:12;15.10;99.90
53053;DHT22;38934;52.690;6.184;2023-05-07T07:33:42;15.30;99.90
53053;DHT22;38934;52.690;6.184;2023-05-07T07:36:08;15.50;99.90
53053;DHT22;38934;52.690;6.184;2023-05-07T07:38:35;15.50;99.90
53053;DHT22;38934;52.690;6.184;2023-05-07T07:41:01;15.50;99.90
53053;DHT22;38934;52.690;6.184;2023-05-07T07:43:29;15.90;99.90
53053;DHT22;38934;52.690;6.184;2023-05-07T07:45:55;15.60;99.90
53053;DHT22;38934;52.690;6.184;2023-05-07T07:48:20;15.60;99.90
53053;DHT22;38934;52.690;6.184;2023-05-07T07:50:49;15.70;99.90
53053;DHT22;38934;52.690;6.184;2023-05-07T07:53:15;15.70;99.90
53053;DHT22;38934;52.690;6.184;2023-05-07T07:55:41;15.70;99.90
53053;DHT22;38934;52.690;6.184;2023-05-07T07:58:06;15.80;99.90
53053;DHT22;38934;52.690;6.184;2023-05-07T08:00:33;15.80;99.90
53053;DHT22;38934;52.690;6.184;2023-05-07T08:02:59;15.70;99.90
53053;DHT22;38934;52.690;6.184;2023-05-07T08:05:25;15.80;99.90
53053;DHT22;38934;52.690;6.184;2023-05-07T08:08:03;15.90;99.90
53053;DHT22;38934;52.690;6.184;2023-05-07T08:10:28;15.90;99.90
53053;DHT22;38934;52.690;6.184;2023-05-07T08:12:54;16.40;99.90
53053;DHT22;38934;52.690;6.184;2023-05-07T08:15:20;16.20;99.90
53053;DHT22;38934;52.690;6.184;2023-05-07T08:17:45;16.40;99.90
53053;DHT22;38934;52.690;6.184;2023-05-07T08:20:14;16.40;99.90
53053;DHT22;38934;52.690;6.184;2023-05-07T08:22:43;16.50;99.90
53053;DHT22;38934;52.690;6.184;2023-05-07T08:25:08;16.70;99.90
53053;DHT22;38934;52.690;6.184;2023-05-07T08:27:34;16.80;99.90
53053;DHT22;38934;52.690;6.184;2023-05-07T08:30:00;16.90;99.90
53053;DHT22;38934;52.690;6.184;2023-05-07T08:32:28;17.10;99.90
53053;DHT22;38934;52.690;6.184;2023-05-07T08:34:54;17.20;99.90
53053;DHT22;38934;52.690;6.184;2023-05-07T08:37:22;17.50;99.90
53053;DHT22;38934;52.690;6.184;2023-05-07T08:39:48;17.80;99.90
53053;DHT22;38934;52.690;6.184;2023-05-07T08:42:16;17.90;99.90
53053;DHT22;38934;52.690;6.184;2023-05-07T08:44:45;18.00;99.90
53053;DHT22;38934;52.690;6.184;2023-05-07T08:47:14;18.20;99.90
53053;DHT22;38934;52.690;6.184;2023-05-07T08:49:45;18.30;99.90
53053;DHT22;38934;52.690;6.184;2023-05-07T08:52:12;18.60;99.90
53053;DHT22;38934;52.690;6.184;2023-05-07T08:54:38;19.30;99.90
53053;DHT22;38934;52.690;6.184;2023-05-07T08:57:07;19.80;99.90
53053;DHT22;38934;52.690;6.184;2023-05-07T08:59:33;20.10;99.90
53053;DHT22;38934;52.690;6.184;2023-05-07T09:01:58;20.60;99.90
53053;DHT22;38934;52.690;6.184;2023-05-07T09:04:24;20.80;99.90
53053;DHT22;38934;52.690;6.184;2023-05-07T09:06:50;21.20;99.90
53053;DHT22;38934;52.690;6.184;2023-05-07T09:09:17;21.50;99.90
53053;DHT22;38934;52.690;6.184;2023-05-07T09:11:44;21.70;99.90
53053;DHT22;38934;52.690;6.184;2023-05-07T09:14:10;21.50;99.90
53053;DHT22;38934;52.690;6.184;2023-05-07T09:16:35;21.40;99.90
53053;DHT22;38934;52.690;6.184;2023-05-07T09:19:01;20.80;99.90
53053;DHT22;38934;52.690;6.184;2023-05-07T09:21:28;20.70;99.90
53053;DHT22;38934;52.690;6.184;2023-05-07T09:23:55;19.80;99.90
53053;DHT22;38934;52.690;6.184;2023-05-07T09:26:22;19.40;99.90
53053;DHT22;38934;52.690;6.184;2023-05-07T09:28:47;19.20;99.90
53053;DHT22;38934;52.690;6.184;2023-05-07T09:31:18;18.90;99.90
53053;DHT22;38934;52.690;6.184;2023-05-07T09:33:46;18.90;99.90
53053;DHT22;38934;52.690;6.184;2023-05-07T09:36:12;19.40;99.90
53053;DHT22;38934;52.690;6.184;2023-05-07T09:38:38;19.20;99.90
53053;DHT22;38934;52.690;6.184;2023-05-07T09:41:08;19.50;99.90
53053;DHT22;38934;52.690;6.184;2023-05-07T09:43:35;19.70;99.90
53053;DHT22;38934;52.690;6.184;2023-05-07T09:46:11;20.00;99.90
53053;DHT22;38934;52.690;6.184;2023-05-07T09:48:42;20.40;99.90
53053;DHT22;38934;52.690;6.184;2023-05-07T09:51:38;20.50;99.90
53053;DHT22;38934;52.690;6.184;2023-05-07T09:54:07;20.70;99.90
53053;DHT22;38934;52.690;6.184;2023-05-07T09:56:33;20.90;99.90
53053;DHT22;38934;52.690;6.184;2023-05-07T09:59:03;21.40;99.90
53053;DHT22;38934;52.690;6.184;2023-05-07T10:01:31;21.60;99.90
53053;DHT22;38934;52.690;6.184;2023-05-07T10:03:57;21.40;99.90
53053;DHT22;38934;52.690;6.184;2023-05-07T10:06:24;21.20;99.90
53053;DHT22;38934;52.690;6.184;2023-05-07T10:08:54;21.50;99.90
53053;DHT22;38934;52.690;6.184;2023-05-07T10:11:22;21.20;99.90
53053;DHT22;38934;52.690;6.184;2023-05-07T10:13:48;21.30;99.90
53053;DHT22;38934;52.690;6.184;2023-05-07T10:16:14;21.00;99.90
53053;DHT22;38934;52.690;6.184;2023-05-07T10:18:40;20.90;99.90
53053;DHT22;38934;52.690;6.184;2023-05-07T10:21:07;20.90;99.90
53053;DHT22;38934;52.690;6.184;2023-05-07T10:23:33;20.90;99.90
53053;DHT22;38934;52.690;6.184;2023-05-07T10:26:02;21.00;99.90
53053;DHT22;38934;52.690;6.184;2023-05-07T10:28:32;21.00;99.90
53053;DHT22;38934;52.690;6.184;2023-05-07T10:33:41;20.80;99.90
53053;DHT22;38934;52.690;6.184;2023-05-07T10:36:10;20.70;99.90
53053;DHT22;38934;52.690;6.184;2023-05-07T10:38:36;20.70;99.90
53053;DHT22;38934;52.690;6.184;2023-05-07T10:41:02;20.70;99.90
53053;DHT22;38934;52.690;6.184;2023-05-07T10:43:41;20.70;99.90
53053;DHT22;38934;52.690;6.184;2023-05-07T10:46:18;20.60;99.90
53053;DHT22;38934;52.690;6.184;2023-05-07T10:51:29;20.60;99.90
53053;DHT22;38934;52.690;6.184;2023-05-07T10:56:44;20.80;99.90
53053;DHT22;38934;52.690;6.184;2023-05-07T11:02:02;20.90;99.90
53053;DHT22;38934;52.690;6.184;2023-05-07T11:04:30;21.10;99.90
53053;DHT22;38934;52.690;6.184;2023-05-07T11:09:57;21.80;99.90
53053;DHT22;38934;52.690;6.184;2023-05-07T11:15:09;22.00;99.90
53053;DHT22;38934;52.690;6.184;2023-05-07T11:17:57;21.90;99.90
53053;DHT22;38934;52.690;6.184;2023-05-07T11:20:54;21.60;99.90
53053;DHT22;38934;52.690;6.184;2023-05-07T11:26:09;21.10;99.90
53053;DHT22;38934;52.690;6.184;2023-05-07T11:28:37;21.00;99.90
53053;DHT22;38934;52.690;6.184;2023-05-07T11:31:04;21.00;99.90
53053;DHT22;38934;52.690;6.184;2023-05-07T11:33:30;21.00;99.90
53053;DHT22;38934;52.690;6.184;2023-05-07T11:35:57;20.90;99.90
53053;DHT22;38934;52.690;6.184;2023-05-07T11:38:24;21.00;99.90
53053;DHT22;38934;52.690;6.184;2023-05-07T11:40:58;21.00;99.90
53053;DHT22;38934;52.690;6.184;2023-05-07T11:43:27;21.00;99.90
53053;DHT22;38934;52.690;6.184;2023-05-07T11:45:54;20.90;99.90
53053;DHT22;38934;52.690;6.184;2023-05-07T11:48:21;21.00;99.90
53053;DHT22;38934;52.690;6.184;2023-05-07T11:51:03;21.00;99.90
53053;DHT22;38934;52.690;6.184;2023-05-07T11:53:40;20.90;99.90
53053;DHT22;38934;52.690;6.184;2023-05-07T11:56:12;20.70;99.90
53053;DHT22;38934;52.690;6.184;2023-05-07T11:58:38;20.70;99.90
53053;DHT22;38934;52.690;6.184;2023-05-07T12:01:08;20.60;99.90
53053;DHT22;38934;52.690;6.184;2023-05-07T12:03:41;20.50;99.90
53053;DHT22;38934;52.690;6.184;2023-05-07T12:06:16;20.50;99.90
53053;DHT22;38934;52.690;6.184;2023-05-07T12:08:43;20.60;99.90
53053;DHT22;38934;52.690;6.184;2023-05-07T12:11:13;20.70;99.90
53053;DHT22;38934;52.690;6.184;2023-05-07T12:13:41;21.00;99.90
53053;DHT22;38934;52.690;6.184;2023-05-07T12:16:08;21.00;99.90
53053;DHT22;38934;52.690;6.184;2023-05-07T12:18:35;21.20;99.90
53053;DHT22;38934;52.690;6.184;2023-05-07T12:21:01;21.10;99.90
53053;DHT22;38934;52.690;6.184;2023-05-07T12:23:28;21.00;99.90
53053;DHT22;38934;52.690;6.184;2023-05-07T12:25:55;20.80;99.90
53053;DHT22;38934;52.690;6.184;2023-05-07T12:28:21;20.70;99.90
53053;DHT22;38934;52.690;6.184;2023-05-07T12:30:48;20.50;99.90
53053;DHT22;38934;52.690;6.184;2023-05-07T12:33:24;20.40;99.90
53053;DHT22;38934;52.690;6.184;2023-05-07T12:35:53;20.20;99.90
53053;DHT22;38934;52.690;6.184;2023-05-07T12:38:20;20.10;99.90
53053;DHT22;38934;52.690;6.184;2023-05-07T12:40:50;20.10;99.90
53053;DHT22;38934;52.690;6.184;2023-05-07T12:43:20;20.10;99.90
53053;DHT22;38934;52.690;6.184;2023-05-07T12:45:51;20.00;99.90
53053;DHT22;38934;52.690;6.184;2023-05-07T12:48:19;20.00;99.90
53053;DHT22;38934;52.690;6.184;2023-05-07T12:50:58;20.00;99.90
53053;DHT22;38934;52.690;6.184;2023-05-07T12:53:26;20.00;99.90
53053;DHT22;38934;52.690;6.184;2023-05-07T12:55:54;20.10;99.90
53053;DHT22;38934;52.690;6.184;2023-05-07T13:00:50;20.00;99.90
53053;DHT22;38934;52.690;6.184;2023-05-07T13:03:24;20.00;99.90
53053;DHT22;38934;52.690;6.184;2023-05-07T13:05:51;20.00;99.90
53053;DHT22;38934;52.690;6.184;2023-05-07T13:08:31;19.90;99.90
53053;DHT22;38934;52.690;6.184;2023-05-07T13:11:01;19.80;99.90
53053;DHT22;38934;52.690;6.184;2023-05-07T13:13:38;19.70;99.90
53053;DHT22;38934;52.690;6.184;2023-05-07T13:16:05;19.90;99.90
53053;DHT22;38934;52.690;6.184;2023-05-07T13:18:32;19.90;99.90
53053;DHT22;38934;52.690;6.184;2023-05-07T13:20:58;20.10;99.90
53053;DHT22;38934;52.690;6.184;2023-05-07T13:23:26;20.10;99.90
53053;DHT22;38934;52.690;6.184;2023-05-07T13:25:51;20.20;99.90
53053;DHT22;38934;52.690;6.184;2023-05-07T13:28:19;20.30;99.90
53053;DHT22;38934;52.690;6.184;2023-05-07T13:30:46;20.40;99.90
53053;DHT22;38934;52.690;6.184;2023-05-07T13:33:12;20.50;99.90
53053;DHT22;38934;52.690;6.184;2023-05-07T13:35:38;20.50;99.90
53053;DHT22;38934;52.690;6.184;2023-05-07T13:38:04;20.50;99.90
53053;DHT22;38934;52.690;6.184;2023-05-07T13:40:30;20.30;99.90
53053;DHT22;38934;52.690;6.184;2023-05-07T13:42:58;20.40;99.90
53053;DHT22;38934;52.690;6.184;2023-05-07T13:45:24;20.40;99.90
53053;DHT22;38934;52.690;6.184;2023-05-07T13:47:52;20.40;99.90
53053;DHT22;38934;52.690;6.184;2023-05-07T13:50:19;20.50;99.90
53053;DHT22;38934;52.690;6.184;2023-05-07T13:52:47;21.00;99.90
53053;DHT22;38934;52.690;6.184;2023-05-07T13:55:21;21.10;99.90
53053;DHT22;38934;52.690;6.184;2023-05-07T13:58:01;20.80;99.90
53053;DHT22;38934;52.690;6.184;2023-05-07T14:00:29;20.80;99.90
53053;DHT22;38934;52.690;6.184;2023-05-07T14:02:56;20.80;99.90
53053;DHT22;38934;52.690;6.184;2023-05-07T14:05:23;20.80;99.90
53053;DHT22;38934;52.690;6.184;2023-05-07T14:07:52;20.80;99.90
53053;DHT22;38934;52.690;6.184;2023-05-07T14:10:18;20.50;99.90
53053;DHT22;38934;52.690;6.184;2023-05-07T14:12:45;20.70;99.90
53053;DHT22;38934;52.690;6.184;2023-05-07T14:15:11;20.60;99.90
53053;DHT22;38934;52.690;6.184;2023-05-07T14:17:37;20.50;99.90
53053;DHT22;38934;52.690;6.184;2023-05-07T14:20:04;20.50;99.90
53053;DHT22;38934;52.690;6.184;2023-05-07T14:22:35;20.50;99.90
53053;DHT22;38934;52.690;6.184;2023-05-07T14:25:02;20.40;99.90
53053;DHT22;38934;52.690;6.184;2023-05-07T14:27:28;20.40;99.90
53053;DHT22;38934;52.690;6.184;2023-05-07T14:29:54;20.40;99.90
53053;DHT22;38934;52.690;6.184;2023-05-07T14:32:20;20.30;99.90
53053;DHT22;38934;52.690;6.184;2023-05-07T14:34:46;20.30;99.90
53053;DHT22;38934;52.690;6.184;2023-05-07T14:37:12;20.20;99.90
53053;DHT22;38934;52.690;6.184;2023-05-07T14:39:38;20.10;99.90
53053;DHT22;38934;52.690;6.184;2023-05-07T14:42:04;20.10;99.90
53053;DHT22;38934;52.690;6.184;2023-05-07T14:44:31;20.00;99.90
53053;DHT22;38934;52.690;6.184;2023-05-07T14:46:56;20.10;99.90
53053;DHT22;38934;52.690;6.184;2023-05-07T14:49:22;19.90;99.90
53053;DHT22;38934;52.690;6.184;2023-05-07T14:51:48;19.90;99.90
53053;DHT22;38934;52.690;6.184;2023-05-07T14:54:16;19.90;99.90
53053;DHT22;38934;52.690;6.184;2023-05-07T14:56:41;19.90;99.90
53053;DHT22;38934;52.690;6.184;2023-05-07T14:59:08;19.80;99.90
53053;DHT22;38934;52.690;6.184;2023-05-07T15:01:35;19.80;99.90
53053;DHT22;38934;52.690;6.184;2023-05-07T15:04:02;19.80;99.90
53053;DHT22;38934;52.690;6.184;2023-05-07T15:06:28;19.70;99.90
53053;DHT22;38934;52.690;6.184;2023-05-07T15:08:59;19.60;99.90
53053;DHT22;38934;52.690;6.184;2023-05-07T15:11:25;19.60;99.90
53053;DHT22;38934;52.690;6.184;2023-05-07T15:13:52;19.60;99.90
53053;DHT22;38934;52.690;6.184;2023-05-07T15:16:18;19.50;99.90
53053;DHT22;38934;52.690;6.184;2023-05-07T15:18:46;19.40;99.90
53053;DHT22;38934;52.690;6.184;2023-05-07T15:21:15;19.50;99.90
53053;DHT22;38934;52.690;6.184;2023-05-07T15:23:42;19.30;99.90
53053;DHT22;38934;52.690;6.184;2023-05-07T15:26:09;19.40;99.90
53053;DHT22;38934;52.690;6.184;2023-05-07T15:28:36;19.00;99.90
53053;DHT22;38934;52.690;6.184;2023-05-07T15:31:03;18.90;99.90
53053;DHT22;38934;52.690;6.184;2023-05-07T15:33:32;19.30;99.90
53053;DHT22;38934;52.690;6.184;2023-05-07T15:35:57;19.00;99.90
53053;DHT22;38934;52.690;6.184;2023-05-07T15:38:25;19.00;99.90
53053;DHT22;38934;52.690;6.184;2023-05-07T15:40:52;19.00;99.90
53053;DHT22;38934;52.690;6.184;2023-05-07T15:43:18;19.20;99.90
53053;DHT22;38934;52.690;6.184;2023-05-07T15:45:45;19.10;99.90
53053;DHT22;38934;52.690;6.184;2023-05-07T15:48:11;19.00;99.90
53053;DHT22;38934;52.690;6.184;2023-05-07T15:50:37;19.00;99.90
53053;DHT22;38934;52.690;6.184;2023-05-07T15:53:03;19.10;99.90
53053;DHT22;38934;52.690;6.184;2023-05-07T15:55:33;19.00;99.90